Time;durP1;ratioP1;P1;durP2;ratioP2;P2;SDS_P1;SDS_P2;PMS_P1;PMS_P2;Temp;Humidity;BMP_temperature;BMP_pressure;BME280_temperature;BME280_humidity;BME280_pressure;Samples;Min_cycle;Max_cycle;Signal;HPM_P1;HPM_P2
2022/08/10 00:00:55;;;;;;;;;;;14.70;99.90;;;;;;5000061;28;19925;-73
2022/08/10 00:03:20;;;;;;;;;;;14.80;99.90;;;;;;5015614;28;20015;-73
2022/08/10 00:05:46;;;;;;;;;;;14.80;99.90;;;;;;5016503;28;20416;-73
2022/08/10 00:08:11;;;;;;;;;;;14.70;99.90;;;;;;4997448;28;20474;-72
2022/08/10 00:10:38;;;;;;;;;;;14.80;99.90;;;;;;5015386;28;19917;-72
2022/08/10 00:13:03;;;;;;;;;;;14.70;99.90;;;;;;5016705;28;20012;-73
2022/08/10 00:15:29;;;;;;;;;;;14.70;99.90;;;;;;4997526;28;19918;-73
2022/08/10 00:17:54;;;;;;;;;;;14.70;99.90;;;;;;5016286;28;19971;-73
2022/08/10 00:20:20;;;;;;;;;;;14.60;99.90;;;;;;5015555;28;19924;-73
2022/08/10 00:22:45;;;;;;;;;;;14.60;99.90;;;;;;5013738;28;19925;-73
2022/08/10 00:25:11;;;;;;;;;;;14.50;99.90;;;;;;5012724;28;19925;-73
2022/08/10 00:27:36;;;;;;;;;;;14.60;99.90;;;;;;4996856;28;20012;-73
2022/08/10 00:30:03;;;;;;;;;;;14.60;99.90;;;;;;5012685;28;19943;-73
2022/08/10 00:32:28;;;;;;;;;;;14.50;99.90;;;;;;5012343;28;19990;-73
2022/08/10 00:34:54;;;;;;;;;;;14.50;99.90;;;;;;5013612;28;19917;-73
2022/08/10 00:37:19;;;;;;;;;;;14.60;99.90;;;;;;5010647;28;19917;-73
2022/08/10 00:39:45;;;;;;;;;;;14.70;99.90;;;;;;4999221;28;20390;-73
2022/08/10 00:42:11;;;;;;;;;;;14.70;99.90;;;;;;5013745;28;20026;-73
2022/08/10 00:44:37;;;;;;;;;;;14.70;99.90;;;;;;5013626;28;19927;-73
2022/08/10 00:47:03;;;;;;;;;;;14.70;99.90;;;;;;5015989;28;20007;-73
2022/08/10 00:49:29;;;;;;;;;;;14.70;99.90;;;;;;5009132;28;20289;-73
2022/08/10 00:51:54;;;;;;;;;;;14.80;99.90;;;;;;5011927;28;19916;-73
2022/08/10 00:54:20;;;;;;;;;;;14.80;99.90;;;;;;5011183;28;19917;-73
2022/08/10 00:56:45;;;;;;;;;;;14.80;99.90;;;;;;5014355;28;20019;-73
2022/08/10 00:59:11;;;;;;;;;;;14.70;99.90;;;;;;5014032;28;20082;-73
2022/08/10 01:01:37;;;;;;;;;;;14.80;99.90;;;;;;4996771;28;19925;-73
2022/08/10 01:04:03;;;;;;;;;;;14.90;99.90;;;;;;5417032;22;20064;-73
2022/08/10 01:06:48;;;;;;;;;;;14.90;99.90;;;;;;5010751;28;20797;-74
2022/08/10 01:12:07;;;;;;;;;;;14.90;99.90;;;;;;5006491;28;19929;-76
2022/08/10 01:14:34;;;;;;;;;;;14.90;99.90;;;;;;5016408;28;19917;-75
2022/08/10 01:17:20;;;;;;;;;;;15.00;99.90;;;;;;5016501;28;19917;-75
2022/08/10 01:19:53;;;;;;;;;;;15.00;99.90;;;;;;4987207;28;19917;-75
2022/08/10 01:22:25;;;;;;;;;;;15.00;99.90;;;;;;5006999;28;19954;-75
2022/08/10 01:25:09;;;;;;;;;;;14.80;99.90;;;;;;5006371;28;19999;-76
2022/08/10 01:27:35;;;;;;;;;;;14.60;99.90;;;;;;5010051;28;19921;-75
2022/08/10 01:30:26;;;;;;;;;;;14.40;99.90;;;;;;5011109;28;19986;-76
2022/08/10 01:32:55;;;;;;;;;;;14.20;99.90;;;;;;5006163;28;20026;-75
2022/08/10 01:35:44;;;;;;;;;;;14.10;99.90;;;;;;5005437;28;19917;-75
2022/08/10 01:38:17;;;;;;;;;;;14.00;99.90;;;;;;5010341;28;20229;-75
2022/08/10 01:40:48;;;;;;;;;;;14.00;99.90;;;;;;5011635;28;19923;-76
2022/08/10 01:43:15;;;;;;;;;;;13.90;99.90;;;;;;5012945;28;19917;-75
2022/08/10 01:45:43;;;;;;;;;;;13.90;99.90;;;;;;5014192;28;19927;-75
2022/08/10 01:48:27;;;;;;;;;;;13.80;99.90;;;;;;4993369;28;19918;-76
2022/08/10 01:50:55;;;;;;;;;;;13.70;99.90;;;;;;5009018;28;20273;-75
2022/08/10 01:53:22;;;;;;;;;;;13.60;99.90;;;;;;5011045;28;19917;-75
2022/08/10 01:55:49;;;;;;;;;;;13.50;99.90;;;;;;5010992;28;19921;-75
2022/08/10 01:58:16;;;;;;;;;;;13.40;99.90;;;;;;5011896;28;19917;-76
2022/08/10 02:00:44;;;;;;;;;;;13.40;99.90;;;;;;5003069;28;19921;-75
2022/08/10 02:03:11;;;;;;;;;;;13.30;99.90;;;;;;5004300;28;20436;-74
2022/08/10 02:05:37;;;;;;;;;;;13.30;99.90;;;;;;5002074;28;19917;-75
2022/08/10 02:08:04;;;;;;;;;;;13.30;99.90;;;;;;5011995;28;20059;-75
2022/08/10 02:10:31;;;;;;;;;;;13.30;99.90;;;;;;5011533;28;19964;-76
2022/08/10 02:12:57;;;;;;;;;;;13.40;99.90;;;;;;5010534;28;19921;-75
2022/08/10 02:15:24;;;;;;;;;;;13.50;99.90;;;;;;5012741;28;19991;-75
2022/08/10 02:17:55;;;;;;;;;;;13.50;99.90;;;;;;5009484;28;19989;-75
2022/08/10 02:20:22;;;;;;;;;;;13.60;99.90;;;;;;5012667;28;20359;-75
2022/08/10 02:22:51;;;;;;;;;;;13.60;99.90;;;;;;5014813;28;20379;-76
2022/08/10 02:25:17;;;;;;;;;;;13.60;99.90;;;;;;5004911;28;19917;-76
2022/08/10 02:27:42;;;;;;;;;;;13.60;99.90;;;;;;5010152;28;20403;-75
2022/08/10 02:30:09;;;;;;;;;;;13.60;99.90;;;;;;5011824;28;20000;-75
2022/08/10 02:32:36;;;;;;;;;;;13.60;99.90;;;;;;5016325;28;20133;-75
2022/08/10 02:35:02;;;;;;;;;;;13.60;99.90;;;;;;5010763;28;19917;-75
2022/08/10 02:37:29;;;;;;;;;;;13.60;99.90;;;;;;5009180;28;19917;-75
2022/08/10 02:39:55;;;;;;;;;;;13.80;99.90;;;;;;5012553;28;20147;-75
2022/08/10 02:42:26;;;;;;;;;;;13.80;99.90;;;;;;5012724;28;20144;-75
2022/08/10 02:44:57;;;;;;;;;;;13.90;99.90;;;;;;5008965;28;19925;-76
2022/08/10 02:47:28;;;;;;;;;;;14.00;99.90;;;;;;5005776;28;19960;-76
2022/08/10 02:50:08;;;;;;;;;;;14.00;99.90;;;;;;5010242;28;19917;-76
2022/08/10 02:52:37;;;;;;;;;;;14.10;99.90;;;;;;5015561;28;20443;-75
2022/08/10 02:55:12;;;;;;;;;;;14.20;99.90;;;;;;5013828;28;19925;-75
2022/08/10 02:57:38;;;;;;;;;;;14.30;99.90;;;;;;5014862;28;20369;-75
2022/08/10 03:00:06;;;;;;;;;;;14.30;99.90;;;;;;5015860;28;19952;-74
2022/08/10 03:02:36;;;;;;;;;;;14.30;99.90;;;;;;5013901;28;19929;-75
2022/08/10 03:05:04;;;;;;;;;;;14.20;99.90;;;;;;5010388;28;20406;-75
2022/08/10 03:07:34;;;;;;;;;;;14.10;99.90;;;;;;5012688;28;20008;-75
2022/08/10 03:10:01;;;;;;;;;;;13.90;99.90;;;;;;5014067;28;19928;-75
2022/08/10 03:12:26;;;;;;;;;;;13.70;99.90;;;;;;5012898;28;19917;-75
2022/08/10 03:14:53;;;;;;;;;;;13.50;99.90;;;;;;5001417;28;19917;-75
2022/08/10 03:17:19;;;;;;;;;;;13.50;99.90;;;;;;5021020;28;19924;-76
2022/08/10 03:19:45;;;;;;;;;;;13.40;99.90;;;;;;5015378;28;19917;-75
2022/08/10 03:22:11;;;;;;;;;;;13.40;99.90;;;;;;5018032;28;20441;-76
2022/08/10 03:24:37;;;;;;;;;;;13.40;99.90;;;;;;5017647;28;19996;-76
2022/08/10 03:27:03;;;;;;;;;;;13.40;99.90;;;;;;5013122;28;19920;-76
2022/08/10 03:29:30;;;;;;;;;;;13.30;99.90;;;;;;5017876;28;19935;-75
2022/08/10 03:31:56;;;;;;;;;;;13.30;99.90;;;;;;5018127;28;19968;-75
2022/08/10 03:34:23;;;;;;;;;;;13.20;99.90;;;;;;5017345;28;19924;-75
2022/08/10 03:36:48;;;;;;;;;;;13.20;99.90;;;;;;5018693;28;19917;-76
2022/08/10 03:39:14;;;;;;;;;;;13.20;99.90;;;;;;5018921;28;19951;-75
2022/08/10 03:41:42;;;;;;;;;;;13.20;99.90;;;;;;5020058;28;20384;-76
2022/08/10 03:44:09;;;;;;;;;;;13.10;99.90;;;;;;5015768;28;19960;-75
2022/08/10 03:46:36;;;;;;;;;;;13.10;99.90;;;;;;5020426;28;20020;-76
2022/08/10 03:49:02;;;;;;;;;;;13.10;99.90;;;;;;5017439;28;19972;-75
2022/08/10 03:51:28;;;;;;;;;;;13.10;99.90;;;;;;5018579;28;20003;-75
2022/08/10 03:53:54;;;;;;;;;;;13.10;99.90;;;;;;5000812;28;19968;-76
2022/08/10 03:56:21;;;;;;;;;;;13.10;99.90;;;;;;5017983;28;19969;-76
2022/08/10 03:58:46;;;;;;;;;;;13.00;99.90;;;;;;5022627;28;19928;-75
2022/08/10 04:01:13;;;;;;;;;;;13.00;99.90;;;;;;5016411;28;19925;-76
2022/08/10 04:03:38;;;;;;;;;;;12.90;99.90;;;;;;5011222;28;19996;-75
2022/08/10 04:06:04;;;;;;;;;;;12.90;99.90;;;;;;5020924;28;19925;-75
2022/08/10 04:08:30;;;;;;;;;;;12.90;99.90;;;;;;5019132;28;19921;-75
2022/08/10 04:10:55;;;;;;;;;;;12.80;99.90;;;;;;5016640;28;20028;-75
2022/08/10 04:13:21;;;;;;;;;;;12.80;99.90;;;;;;5015724;28;20023;-76
2022/08/10 04:15:47;;;;;;;;;;;12.80;99.90;;;;;;4996072;28;19924;-76
2022/08/10 04:18:12;;;;;;;;;;;12.80;99.90;;;;;;5019587;28;19917;-76
2022/08/10 04:20:48;;;;;;;;;;;12.80;99.90;;;;;;5015041;28;20373;-75
2022/08/10 04:23:17;;;;;;;;;;;12.80;99.90;;;;;;5017092;28;19925;-76
2022/08/10 04:25:43;;;;;;;;;;;12.90;99.90;;;;;;5014380;28;19969;-76
2022/08/10 04:28:09;;;;;;;;;;;12.90;99.90;;;;;;5017936;28;19996;-75
2022/08/10 04:30:35;;;;;;;;;;;12.90;99.90;;;;;;5016017;28;19917;-76
2022/08/10 04:33:02;;;;;;;;;;;12.90;99.90;;;;;;5014439;28;20451;-76
2022/08/10 04:35:28;;;;;;;;;;;12.90;99.90;;;;;;5017684;28;19921;-76
2022/08/10 04:37:55;;;;;;;;;;;12.90;99.90;;;;;;5016700;28;20453;-76
2022/08/10 04:40:21;;;;;;;;;;;12.80;99.90;;;;;;5010543;28;19917;-75
2022/08/10 04:42:46;;;;;;;;;;;12.70;99.90;;;;;;5015765;28;19988;-76
2022/08/10 04:45:13;;;;;;;;;;;12.70;99.90;;;;;;5020381;28;20018;-75
2022/08/10 04:47:38;;;;;;;;;;;12.60;99.90;;;;;;5020148;28;19917;-76
2022/08/10 04:50:04;;;;;;;;;;;12.60;99.90;;;;;;5015947;28;20394;-76
2022/08/10 04:52:30;;;;;;;;;;;12.60;99.90;;;;;;5017794;28;19924;-76
2022/08/10 04:54:55;;;;;;;;;;;12.60;99.90;;;;;;5020215;28;20264;-75
2022/08/10 04:57:21;;;;;;;;;;;12.70;99.90;;;;;;5014014;28;19953;-76
2022/08/10 04:59:47;;;;;;;;;;;12.80;99.90;;;;;;5019848;28;19997;-76
2022/08/10 05:02:13;;;;;;;;;;;12.90;99.90;;;;;;5010471;28;20508;-76
2022/08/10 05:04:39;;;;;;;;;;;12.90;99.90;;;;;;5013077;28;20435;-76
2022/08/10 05:07:14;;;;;;;;;;;12.90;99.90;;;;;;5014857;28;19964;-76
2022/08/10 05:09:40;;;;;;;;;;;12.90;99.90;;;;;;5012995;28;19917;-76
2022/08/10 05:12:06;;;;;;;;;;;12.90;99.90;;;;;;5013877;28;19928;-76
2022/08/10 05:14:31;;;;;;;;;;;12.90;99.90;;;;;;5010322;28;19921;-75
2022/08/10 05:16:57;;;;;;;;;;;13.00;99.90;;;;;;5016173;28;19974;-76
2022/08/10 05:19:22;;;;;;;;;;;13.10;99.90;;;;;;5017090;28;19921;-76
2022/08/10 05:21:48;;;;;;;;;;;13.20;99.90;;;;;;5016718;28;20427;-76
2022/08/10 05:24:13;;;;;;;;;;;13.40;99.90;;;;;;5016302;28;20541;-76
2022/08/10 05:26:39;;;;;;;;;;;13.50;99.90;;;;;;5017526;28;20388;-76
2022/08/10 05:29:04;;;;;;;;;;;13.60;99.90;;;;;;5018965;28;19924;-76
2022/08/10 05:31:30;;;;;;;;;;;13.60;99.90;;;;;;5013241;28;20269;-75
2022/08/10 05:33:55;;;;;;;;;;;13.70;99.90;;;;;;5013034;28;20477;-76
2022/08/10 05:36:21;;;;;;;;;;;13.70;99.90;;;;;;5015524;28;20380;-75
2022/08/10 05:38:48;;;;;;;;;;;13.80;99.90;;;;;;5012566;28;19973;-76
2022/08/10 05:41:14;;;;;;;;;;;13.80;99.90;;;;;;5013970;28;20431;-76
2022/08/10 05:43:40;;;;;;;;;;;13.80;99.90;;;;;;5018107;28;19924;-75
2022/08/10 05:46:05;;;;;;;;;;;13.80;99.90;;;;;;4993184;28;19969;-76
2022/08/10 05:48:31;;;;;;;;;;;13.80;99.90;;;;;;5019509;28;19974;-76
2022/08/10 05:50:57;;;;;;;;;;;13.90;99.90;;;;;;5014207;28;20397;-76
2022/08/10 05:53:22;;;;;;;;;;;13.90;99.90;;;;;;5013858;28;20408;-77
2022/08/10 05:55:48;;;;;;;;;;;14.00;99.90;;;;;;5013564;28;19953;-76
2022/08/10 05:58:13;;;;;;;;;;;14.10;99.90;;;;;;5020061;28;19924;-75
2022/08/10 06:00:39;;;;;;;;;;;14.20;99.90;;;;;;5012512;28;20011;-75
2022/08/10 06:03:07;;;;;;;;;;;14.30;99.90;;;;;;5012492;28;19925;-75
2022/08/10 06:05:33;;;;;;;;;;;14.40;99.90;;;;;;5012765;28;19939;-75
2022/08/10 06:08:07;;;;;;;;;;;14.60;99.90;;;;;;5013670;28;19983;-76
2022/08/10 06:10:33;;;;;;;;;;;14.70;99.90;;;;;;5014756;28;19987;-76
2022/08/10 06:15:46;;;;;;;;;;;14.80;99.90;;;;;;5012857;28;20335;-75
2022/08/10 06:18:13;;;;;;;;;;;14.80;99.90;;;;;;5010151;28;20443;-75
2022/08/10 06:20:39;;;;;;;;;;;15.00;99.90;;;;;;5008387;28;19917;-75
2022/08/10 06:23:05;;;;;;;;;;;15.00;99.90;;;;;;5009268;28;19928;-76
2022/08/10 06:25:31;;;;;;;;;;;15.20;99.90;;;;;;5009507;28;19940;-75
2022/08/10 06:27:57;;;;;;;;;;;15.20;99.90;;;;;;5006613;28;19917;-75
2022/08/10 06:30:24;;;;;;;;;;;15.40;99.90;;;;;;5004775;28;19933;-76
2022/08/10 06:32:51;;;;;;;;;;;15.50;99.90;;;;;;5012465;28;20468;-75
2022/08/10 06:35:17;;;;;;;;;;;15.60;99.90;;;;;;5009029;28;19928;-75
2022/08/10 06:37:43;;;;;;;;;;;15.80;99.90;;;;;;5008936;28;19917;-76
2022/08/10 06:40:08;;;;;;;;;;;15.90;99.90;;;;;;5008321;28;19924;-76
2022/08/10 06:42:36;;;;;;;;;;;16.00;99.90;;;;;;5012906;28;19925;-75
2022/08/10 06:45:06;;;;;;;;;;;16.20;99.90;;;;;;5010086;28;19928;-75
2022/08/10 06:47:32;;;;;;;;;;;16.40;99.90;;;;;;5002943;28;19975;-75
2022/08/10 06:49:59;;;;;;;;;;;16.50;99.90;;;;;;5006316;28;19921;-75
2022/08/10 06:52:26;;;;;;;;;;;16.70;99.90;;;;;;5006667;28;19924;-75
2022/08/10 06:54:53;;;;;;;;;;;16.80;99.90;;;;;;4998638;28;19921;-75
2022/08/10 06:57:18;;;;;;;;;;;16.90;99.90;;;;;;5004896;28;19932;-75
2022/08/10 06:59:44;;;;;;;;;;;17.00;99.90;;;;;;5006648;28;19925;-75
2022/08/10 07:02:17;;;;;;;;;;;17.10;99.90;;;;;;4999420;28;20383;-75
2022/08/10 07:04:45;;;;;;;;;;;17.30;99.90;;;;;;4999579;28;20015;-75
2022/08/10 07:07:14;;;;;;;;;;;17.60;99.90;;;;;;4996161;28;20034;-75
2022/08/10 07:09:40;;;;;;;;;;;17.70;99.90;;;;;;4997958;28;20023;-75
2022/08/10 07:12:06;;;;;;;;;;;17.80;99.90;;;;;;5000320;28;19983;-75
2022/08/10 07:14:35;;;;;;;;;;;18.00;99.90;;;;;;5011706;28;19924;-75
2022/08/10 07:17:01;;;;;;;;;;;18.00;99.90;;;;;;5004976;28;20296;-75
2022/08/10 07:19:28;;;;;;;;;;;18.30;99.90;;;;;;5006583;28;19925;-75
2022/08/10 07:21:53;;;;;;;;;;;18.70;99.90;;;;;;5009484;28;19925;-75
2022/08/10 07:24:19;;;;;;;;;;;18.90;99.90;;;;;;5009531;28;19936;-75
2022/08/10 07:26:47;;;;;;;;;;;19.10;99.90;;;;;;5009959;28;19986;-75
2022/08/10 07:29:14;;;;;;;;;;;19.30;99.90;;;;;;5001421;28;19924;-75
2022/08/10 07:31:40;;;;;;;;;;;19.60;99.90;;;;;;4998037;28;20295;-76
2022/08/10 07:34:06;;;;;;;;;;;19.70;99.90;;;;;;5002561;28;19940;-76
2022/08/10 07:36:34;;;;;;;;;;;20.00;99.90;;;;;;5001726;28;19922;-76
2022/08/10 07:39:00;;;;;;;;;;;20.10;99.90;;;;;;5005703;28;19927;-76
2022/08/10 07:41:29;;;;;;;;;;;20.30;99.90;;;;;;5003164;28;19932;-76
2022/08/10 07:43:55;;;;;;;;;;;20.40;99.90;;;;;;5015890;28;19917;-76
2022/08/10 07:46:23;;;;;;;;;;;20.60;99.90;;;;;;5008648;28;20008;-76
2022/08/10 07:48:53;;;;;;;;;;;20.70;99.90;;;;;;5012893;28;20570;-76
2022/08/10 07:51:20;;;;;;;;;;;21.10;99.90;;;;;;5013600;28;19924;-77
2022/08/10 07:53:49;;;;;;;;;;;21.50;99.90;;;;;;4992999;28;19984;-77
2022/08/10 07:56:16;;;;;;;;;;;24.20;99.90;;;;;;5006984;28;19997;-77
2022/08/10 07:58:47;;;;;;;;;;;28.70;99.90;;;;;;5012569;28;20391;-78
2022/08/10 08:01:13;;;;;;;;;;;32.70;93.60;;;;;;5018930;28;19928;-78
2022/08/10 08:03:39;;;;;;;;;;;35.20;76.60;;;;;;5015940;28;19917;-77
2022/08/10 08:06:05;;;;;;;;;;;36.60;63.20;;;;;;5009108;28;20323;-78
2022/08/10 08:08:31;;;;;;;;;;;37.60;57.00;;;;;;5009105;28;19949;-78
2022/08/10 08:10:57;;;;;;;;;;;39.00;51.70;;;;;;5009561;28;20036;-78
2022/08/10 08:13:23;;;;;;;;;;;39.30;50.20;;;;;;5009805;28;19922;-78
2022/08/10 08:15:51;;;;;;;;;;;39.80;46.70;;;;;;5004726;28;21425;-79
2022/08/10 08:18:18;;;;;;;;;;;40.40;43.70;;;;;;5009412;28;19967;-78
2022/08/10 08:20:44;;;;;;;;;;;40.60;43.30;;;;;;5009886;28;19944;-79
2022/08/10 08:23:11;;;;;;;;;;;40.80;41.90;;;;;;5015597;28;19976;-76
2022/08/10 08:25:37;;;;;;;;;;;41.10;42.70;;;;;;5011869;28;19925;-75
2022/08/10 08:28:04;;;;;;;;;;;42.20;39.00;;;;;;5012244;28;19928;-79
2022/08/10 08:30:30;;;;;;;;;;;42.60;40.00;;;;;;5006206;28;20143;-78
2022/08/10 08:32:57;;;;;;;;;;;42.80;37.50;;;;;;5017812;28;19917;-78
2022/08/10 08:35:24;;;;;;;;;;;43.00;38.00;;;;;;5015281;28;20226;-79
2022/08/10 08:37:51;;;;;;;;;;;42.40;37.50;;;;;;5012509;28;19921;-78
2022/08/10 08:40:22;;;;;;;;;;;42.40;36.90;;;;;;5019225;28;19917;-79
2022/08/10 08:42:53;;;;;;;;;;;42.60;37.60;;;;;;5011665;28;19937;-79
2022/08/10 08:45:19;;;;;;;;;;;41.70;35.90;;;;;;5020184;28;19917;-81
2022/08/10 08:47:51;;;;;;;;;;;41.50;35.90;;;;;;5000806;28;19924;-80
2022/08/10 08:50:32;;;;;;;;;;;41.30;36.20;;;;;;5016151;28;19932;-79
2022/08/10 08:53:09;;;;;;;;;;;41.50;36.30;;;;;;4999109;28;20631;-80
2022/08/10 08:55:41;;;;;;;;;;;41.10;35.70;;;;;;5011552;28;19917;-78
2022/08/10 08:58:22;;;;;;;;;;;41.00;36.80;;;;;;5002485;28;20169;-79
2022/08/10 09:00:56;;;;;;;;;;;40.40;36.90;;;;;;5006713;28;19956;-79
2022/08/10 09:03:36;;;;;;;;;;;40.60;36.50;;;;;;5005628;28;19955;-79
2022/08/10 09:06:05;;;;;;;;;;;40.40;35.80;;;;;;4997820;28;20022;-78
2022/08/10 09:08:49;;;;;;;;;;;40.30;36.00;;;;;;4997889;28;20351;-79
2022/08/10 09:11:17;;;;;;;;;;;40.40;36.70;;;;;;5010380;28;19925;-79
2022/08/10 09:13:47;;;;;;;;;;;40.30;36.20;;;;;;5011762;28;20644;-79
2022/08/10 09:16:37;;;;;;;;;;;40.20;34.70;;;;;;5006270;28;20442;-79
2022/08/10 09:19:02;;;;;;;;;;;39.20;35.80;;;;;;4982903;28;19965;-79
2022/08/10 09:21:31;;;;;;;;;;;39.40;36.60;;;;;;5006120;28;20087;-79
2022/08/10 09:23:57;;;;;;;;;;;39.20;35.50;;;;;;4996961;28;19971;-78
2022/08/10 09:26:46;;;;;;;;;;;38.50;38.00;;;;;;5016391;28;20016;-79
2022/08/10 09:29:13;;;;;;;;;;;39.30;37.70;;;;;;4992877;28;20023;-79
2022/08/10 09:31:46;;;;;;;;;;;39.90;35.50;;;;;;5003472;28;19917;-79
2022/08/10 09:34:19;;;;;;;;;;;39.70;36.50;;;;;;5003738;28;21234;-79
2022/08/10 09:37:02;;;;;;;;;;;39.50;35.80;;;;;;5005005;28;19917;-79
2022/08/10 09:39:28;;;;;;;;;;;39.50;36.20;;;;;;5005463;28;19952;-78
2022/08/10 09:42:10;;;;;;;;;;;39.20;37.30;;;;;;4997465;28;20522;-78
2022/08/10 09:44:48;;;;;;;;;;;39.50;36.00;;;;;;4994041;28;19922;-78
2022/08/10 09:47:26;;;;;;;;;;;39.60;38.40;;;;;;5012050;28;20323;-78
2022/08/10 09:50:10;;;;;;;;;;;40.00;34.40;;;;;;4999466;28;20308;-76
2022/08/10 09:52:55;;;;;;;;;;;39.70;37.10;;;;;;5015205;28;19917;-77
2022/08/10 09:55:23;;;;;;;;;;;40.20;35.90;;;;;;4996932;28;19987;-77
2022/08/10 09:58:08;;;;;;;;;;;40.70;35.50;;;;;;5002376;28;19913;-78
2022/08/10 10:00:38;;;;;;;;;;;40.20;34.10;;;;;;5017782;28;19917;-76
2022/08/10 10:03:13;;;;;;;;;;;39.50;33.60;;;;;;5002967;28;20585;-79
2022/08/10 10:05:58;;;;;;;;;;;39.20;36.20;;;;;;5015578;28;19917;-78
2022/08/10 10:08:26;;;;;;;;;;;38.90;36.70;;;;;;4318770;28;10000065;-78
2022/08/10 10:10:55;;;;;;;;;;;38.70;36.20;;;;;;5013933;28;20235;-78
2022/08/10 10:13:49;;;;;;;;;;;39.40;38.20;;;;;;5009789;28;20415;-77
2022/08/10 10:16:24;;;;;;;;;;;39.80;35.30;;;;;;4949398;28;20307;-76
2022/08/10 10:19:00;;;;;;;;;;;39.00;33.30;;;;;;5014968;28;20387;-76
2022/08/10 10:21:55;;;;;;;;;;;38.50;35.20;;;;;;5017918;28;19925;-77
2022/08/10 10:24:31;;;;;;;;;;;38.90;36.40;;;;;;4992534;28;20388;-77
2022/08/10 10:27:08;;;;;;;;;;;38.30;37.50;;;;;;5008677;28;19921;-76
2022/08/10 10:29:52;;;;;;;;;;;38.70;35.60;;;;;;5017221;28;19917;-76
2022/08/10 10:32:24;;;;;;;;;;;38.50;35.50;;;;;;5005877;28;19917;-73
2022/08/10 10:34:55;;;;;;;;;;;38.30;36.70;;;;;;5012088;28;19921;-77
2022/08/10 10:37:21;;;;;;;;;;;38.60;35.40;;;;;;5005296;28;19921;-77
2022/08/10 10:39:50;;;;;;;;;;;38.30;35.10;;;;;;5010179;28;19925;-75
2022/08/10 10:42:23;;;;;;;;;;;38.00;35.30;;;;;;5006513;28;19972;-76
2022/08/10 10:45:07;;;;;;;;;;;38.40;35.40;;;;;;5003480;28;19917;-76
2022/08/10 10:47:47;;;;;;;;;;;38.50;35.90;;;;;;5016241;28;20667;-76
2022/08/10 10:50:31;;;;;;;;;;;38.50;37.30;;;;;;5011752;28;19921;-76
2022/08/10 10:53:09;;;;;;;;;;;38.40;35.50;;;;;;5012853;28;20080;-76
2022/08/10 10:55:34;;;;;;;;;;;38.40;35.20;;;;;;5004518;28;19933;-76
2022/08/10 10:58:11;;;;;;;;;;;38.60;37.00;;;;;;5013967;28;19957;-76
2022/08/10 11:00:56;;;;;;;;;;;37.70;35.70;;;;;;5008205;28;19924;-75
2022/08/10 11:03:45;;;;;;;;;;;38.00;35.70;;;;;;4994215;28;19925;-76
2022/08/10 11:06:25;;;;;;;;;;;38.60;34.90;;;;;;4971567;28;20012;-76
2022/08/10 11:09:02;;;;;;;;;;;38.60;35.00;;;;;;5016005;28;20664;-76
2022/08/10 11:11:30;;;;;;;;;;;38.10;37.00;;;;;;5006473;28;19931;-76
2022/08/10 11:14:01;;;;;;;;;;;38.40;35.10;;;;;;5017765;28;19917;-76
2022/08/10 11:16:42;;;;;;;;;;;38.10;34.90;;;;;;5010958;28;20095;-76
2022/08/10 11:19:16;;;;;;;;;;;38.00;34.80;;;;;;5019822;28;20501;-76
2022/08/10 11:22:02;;;;;;;;;;;38.10;33.50;;;;;;5018239;28;19921;-77
2022/08/10 11:24:31;;;;;;;;;;;38.50;33.50;;;;;;5007755;28;19917;-76
2022/08/10 11:27:17;;;;;;;;;;;38.40;35.00;;;;;;5019608;28;20033;-75
2022/08/10 11:30:02;;;;;;;;;;;37.40;35.40;;;;;;5018679;28;19924;-76
2022/08/10 11:32:40;;;;;;;;;;;37.10;36.20;;;;;;5021417;28;20403;-76
2022/08/10 11:35:06;;;;;;;;;;;37.00;36.60;;;;;;5022096;28;19924;-76
2022/08/10 11:37:44;;;;;;;;;;;36.20;37.20;;;;;;5023948;28;20186;-77
2022/08/10 11:40:31;;;;;;;;;;;35.30;37.40;;;;;;5015359;28;19936;-76
2022/08/10 11:43:13;;;;;;;;;;;34.60;39.10;;;;;;4992806;28;20004;-76
2022/08/10 11:45:41;;;;;;;;;;;34.00;41.10;;;;;;5013871;28;20241;-75
2022/08/10 11:48:17;;;;;;;;;;;33.80;40.40;;;;;;5022531;28;19939;-75
2022/08/10 11:50:43;;;;;;;;;;;33.50;40.60;;;;;;5010143;28;20035;-76
2022/08/10 11:53:12;;;;;;;;;;;33.40;40.80;;;;;;5013273;28;20368;-76
2022/08/10 11:55:39;;;;;;;;;;;33.50;40.60;;;;;;5021716;28;19960;-75
2022/08/10 11:59:55;;;;;;;;;;;33.40;42.20;;;;;;5022868;28;19957;-75
2022/08/10 12:00:56;;;;;;;;;;;33.30;43.20;;;;;;5022590;28;20622;-76
2022/08/10 12:03:22;;;;;;;;;;;33.50;43.20;;;;;;5021405;28;19925;-76
2022/08/10 12:05:47;;;;;;;;;;;33.50;40.50;;;;;;5021642;28;19921;-76
2022/08/10 12:08:16;;;;;;;;;;;33.40;40.40;;;;;;5019510;28;19924;-76
2022/08/10 12:10:42;;;;;;;;;;;32.90;42.20;;;;;;5020950;28;19925;-75
2022/08/10 12:13:14;;;;;;;;;;;33.00;41.70;;;;;;5022409;28;19917;-76
2022/08/10 12:15:47;;;;;;;;;;;33.00;43.90;;;;;;4998684;28;19923;-75
2022/08/10 12:18:16;;;;;;;;;;;32.80;41.50;;;;;;5002476;28;19921;-75
2022/08/10 12:20:45;;;;;;;;;;;32.90;45.10;;;;;;5002801;28;19921;-76
2022/08/10 12:23:15;;;;;;;;;;;33.00;42.90;;;;;;5003121;28;20060;-75
2022/08/10 12:25:47;;;;;;;;;;;33.00;43.70;;;;;;5012491;28;19956;-75
2022/08/10 12:28:15;;;;;;;;;;;33.00;43.30;;;;;;5017614;28;19978;-77
2022/08/10 12:30:45;;;;;;;;;;;32.90;45.00;;;;;;5025603;28;19924;-77
2022/08/10 12:33:25;;;;;;;;;;;33.10;46.30;;;;;;5000568;28;20345;-77
2022/08/10 12:35:53;;;;;;;;;;;33.40;41.70;;;;;;5016280;28;20271;-76
2022/08/10 12:38:22;;;;;;;;;;;33.20;42.60;;;;;;4999533;28;19921;-76
2022/08/10 12:40:51;;;;;;;;;;;33.30;40.80;;;;;;5017719;28;19918;-77
2022/08/10 12:43:24;;;;;;;;;;;33.30;41.80;;;;;;5017277;28;19925;-76
2022/08/10 12:45:57;;;;;;;;;;;33.20;40.90;;;;;;5021305;28;19917;-76
2022/08/10 12:48:46;;;;;;;;;;;33.20;42.90;;;;;;5021941;28;20298;-78
2022/08/10 12:51:11;;;;;;;;;;;33.10;42.00;;;;;;5021202;28;19944;-76
2022/08/10 12:53:37;;;;;;;;;;;33.20;43.30;;;;;;5019741;28;19917;-77
2022/08/10 12:56:04;;;;;;;;;;;32.90;43.00;;;;;;5018162;28;20491;-76
2022/08/10 12:58:30;;;;;;;;;;;32.90;43.90;;;;;;5009673;28;19959;-76
2022/08/10 13:00:56;;;;;;;;;;;32.80;45.40;;;;;;5003929;28;19918;-76
2022/08/10 13:03:24;;;;;;;;;;;33.00;44.80;;;;;;5003430;28;19929;-76
2022/08/10 13:05:50;;;;;;;;;;;33.20;45.40;;;;;;5015384;28;19921;-77
2022/08/10 13:11:05;;;;;;;;;;;33.00;42.90;;;;;;5014515;28;19993;-76
2022/08/10 13:13:32;;;;;;;;;;;32.90;45.90;;;;;;5016146;28;20368;-76
2022/08/10 13:15:58;;;;;;;;;;;33.00;45.30;;;;;;4999682;28;19917;-76
2022/08/10 13:18:28;;;;;;;;;;;32.80;43.70;;;;;;5018569;28;19917;-77
2022/08/10 13:20:58;;;;;;;;;;;32.80;44.50;;;;;;5018542;28;20490;-75
2022/08/10 13:23:26;;;;;;;;;;;33.00;44.10;;;;;;5016681;28;20040;-76
2022/08/10 13:25:53;;;;;;;;;;;32.90;44.80;;;;;;5016786;28;20142;-77
2022/08/10 13:28:21;;;;;;;;;;;33.00;45.30;;;;;;5019139;28;19917;-76
2022/08/10 13:30:47;;;;;;;;;;;32.80;45.00;;;;;;4999804;28;20155;-76
2022/08/10 13:33:15;;;;;;;;;;;32.80;45.00;;;;;;5011471;28;19921;-73
2022/08/10 13:35:42;;;;;;;;;;;32.70;48.10;;;;;;5019230;28;19952;-73
2022/08/10 13:38:09;;;;;;;;;;;32.60;46.10;;;;;;5020951;28;19915;-74
2022/08/10 13:40:34;;;;;;;;;;;32.60;49.70;;;;;;3962816;28;10000824;-73
2022/08/10 13:43:04;;;;;;;;;;;32.60;45.90;;;;;;4995879;28;20356;-74
2022/08/10 13:45:30;;;;;;;;;;;32.50;46.40;;;;;;5016361;28;20463;-73
2022/08/10 13:48:13;;;;;;;;;;;32.50;47.70;;;;;;5018740;28;20089;-73
2022/08/10 13:50:39;;;;;;;;;;;32.40;46.30;;;;;;5017849;28;20449;-74
2022/08/10 13:53:07;;;;;;;;;;;32.40;46.60;;;;;;4998811;28;19953;-74
2022/08/10 13:55:33;;;;;;;;;;;32.30;46.90;;;;;;5017272;28;19918;-73
2022/08/10 13:58:01;;;;;;;;;;;32.30;45.70;;;;;;5018879;28;20015;-74
2022/08/10 14:00:35;;;;;;;;;;;32.30;49.40;;;;;;5018405;28;19928;-74
2022/08/10 14:03:07;;;;;;;;;;;32.20;47.40;;;;;;5018901;28;19921;-74
2022/08/10 14:05:33;;;;;;;;;;;32.00;45.20;;;;;;5002074;28;19921;-74
2022/08/10 14:07:59;;;;;;;;;;;31.90;48.10;;;;;;5000477;28;20008;-73
2022/08/10 14:10:33;;;;;;;;;;;31.80;46.20;;;;;;5000681;28;19925;-74
2022/08/10 14:13:00;;;;;;;;;;;31.80;46.50;;;;;;5020225;28;19963;-74
2022/08/10 14:15:28;;;;;;;;;;;31.80;49.20;;;;;;5017810;28;19913;-74
2022/08/10 14:17:54;;;;;;;;;;;31.90;47.60;;;;;;5011611;28;20011;-73
2022/08/10 14:20:24;;;;;;;;;;;31.90;47.20;;;;;;5015519;28;19928;-74
2022/08/10 14:22:58;;;;;;;;;;;31.80;46.40;;;;;;4991086;28;20812;-74
2022/08/10 14:25:24;;;;;;;;;;;31.80;47.50;;;;;;4995587;28;19948;-73
2022/08/10 14:27:50;;;;;;;;;;;31.60;48.70;;;;;;5011143;28;19917;-73
2022/08/10 14:30:15;;;;;;;;;;;31.60;47.20;;;;;;4998745;28;19933;-73
2022/08/10 14:32:46;;;;;;;;;;;31.70;48.80;;;;;;5005774;28;19918;-74
2022/08/10 14:35:12;;;;;;;;;;;31.80;47.70;;;;;;5018153;28;20280;-73
2022/08/10 14:37:48;;;;;;;;;;;31.60;47.60;;;;;;5012940;28;20364;-74